Time;durP1;ratioP1;P1;durP2;ratioP2;P2;SDS_P1;SDS_P2;PMS_P1;PMS_P2;Temp;Humidity;BMP_temperature;BMP_pressure;BME280_temperature;BME280_humidity;BME280_pressure;Samples;Min_cycle;Max_cycle;Signal;HPM_P1;HPM_P2
2023/04/09 00:01:40;;;;;;;49.60;42.45;;;;;;;9.37;90.46;102484.06;5042762;28;20047;-55
2023/04/09 00:04:05;;;;;;;47.58;42.25;;;;;;;9.38;90.51;102488.47;5038574;28;20029;-55
2023/04/09 00:06:31;;;;;;;49.15;42.42;;;;;;;9.38;90.41;102486.66;5028359;28;20475;-56
2023/04/09 00:08:56;;;;;;;48.65;42.17;;;;;;;9.38;90.33;102485.81;5035609;28;20047;-53
2023/04/09 00:11:21;;;;;;;49.67;43.20;;;;;;;9.37;90.81;102484.94;5033701;28;20053;-53
2023/04/09 00:13:47;;;;;;;53.75;44.28;;;;;;;9.37;90.41;102476.97;5027286;28;20057;-54
2023/04/09 00:16:12;;;;;;;52.55;44.67;;;;;;;9.37;91.24;102476.97;5036720;28;20041;-53
2023/04/09 00:18:37;;;;;;;50.88;42.05;;;;;;;9.37;90.62;102474.31;5037191;28;20028;-56
2023/04/09 00:21:03;;;;;;;51.03;42.08;;;;;;;9.37;90.72;102482.28;5024289;28;20034;-54
2023/04/09 00:23:28;;;;;;;52.63;43.58;;;;;;;9.36;91.24;102471.72;5034980;28;20108;-54
2023/04/09 00:25:53;;;;;;;50.55;42.78;;;;;;;9.36;91.19;102474.38;5034433;28;20425;-53
2023/04/09 00:28:19;;;;;;;50.78;41.67;;;;;;;9.36;90.91;102480.56;5036824;28;20543;-53
2023/04/09 00:30:44;;;;;;;48.42;40.58;;;;;;;9.36;91.75;102480.56;5032498;28;20552;-53
2023/04/09 00:33:09;;;;;;;44.90;39.28;;;;;;;9.35;91.53;102470.88;5040235;28;20060;-53
2023/04/09 00:35:35;;;;;;;45.08;38.70;;;;;;;9.35;92.03;102470.88;5039531;28;20112;-53
2023/04/09 00:38:00;;;;;;;43.92;38.10;;;;;;;9.34;92.01;102469.19;5021326;28;20025;-57
2023/04/09 00:40:26;;;;;;;44.17;36.80;;;;;;;9.33;91.66;102467.44;5035238;28;20470;-53
2023/04/09 00:42:51;;;;;;;40.65;35.42;;;;;;;9.34;92.02;102463.88;5042995;28;20092;-54
2023/04/09 00:45:16;;;;;;;39.20;34.90;;;;;;;9.35;92.04;102467.38;5047480;28;20557;-53
2023/04/09 00:47:44;;;;;;;40.45;34.22;;;;;;;9.33;92.00;102458.63;5037755;28;20037;-53
2023/04/09 00:50:09;;;;;;;38.70;33.42;;;;;;;9.32;92.95;102463.06;5040790;28;20021;-54
2023/04/09 00:52:35;;;;;;;39.38;34.08;;;;;;;9.32;92.83;102473.66;5034074;28;20068;-53
2023/04/09 00:55:04;;;;;;;37.83;32.85;;;;;;;9.29;93.12;102468.50;5036950;28;20045;-55
2023/04/09 00:57:29;;;;;;;36.03;31.88;;;;;;;9.32;92.80;102473.66;5036613;28;20074;-53
2023/04/09 00:59:55;;;;;;;37.90;32.95;;;;;;;9.30;92.92;102464.09;5039360;28;20033;-53
2023/04/09 01:02:20;;;;;;;37.47;32.13;;;;;;;9.30;93.23;102464.94;5034565;28;20025;-53
2023/04/09 01:04:46;;;;;;;34.95;30.60;;;;;;;9.29;93.51;102457.88;5036080;28;20100;-54
2023/04/09 01:07:21;;;;;;;35.03;31.27;;;;;;;9.27;93.81;102457.09;5039708;28;20026;-52
2023/04/09 01:09:53;;;;;;;34.30;30.58;;;;;;;9.26;93.61;102455.41;5040049;28;20057;-53
2023/04/09 01:12:42;;;;;;;35.25;30.45;;;;;;;9.28;93.50;102450.03;5035726;28;20509;-53
2023/04/09 01:15:12;;;;;;;35.53;29.20;;;;;;;9.24;94.16;102455.47;5031578;28;20025;-53
2023/04/09 01:17:49;;;;;;;34.45;29.88;;;;;;;9.23;94.23;102448.44;5029402;28;20386;-53
2023/04/09 01:20:27;;;;;;;33.30;29.05;;;;;;;9.22;94.34;102440.56;5030493;28;20025;-53
2023/04/09 01:23:18;;;;;;;34.23;29.40;;;;;;;9.25;94.35;102446.56;5042491;28;20039;-56
2023/04/09 01:26:13;;;;;;;31.38;27.98;;;;;;;9.23;94.68;102443.13;5018104;28;20033;-59
2023/04/09 01:28:43;;;;;;;33.90;29.30;;;;;;;9.22;94.74;102448.50;5032509;28;20033;-54
2023/04/09 01:31:14;;;;;;;33.10;28.63;;;;;;;9.21;94.85;102444.16;5032449;28;20363;-56
2023/04/09 01:33:40;;;;;;;32.65;28.40;;;;;;;9.19;95.06;102446.88;5033208;28;20039;-58
2023/04/09 01:36:06;;;;;;;33.83;29.58;;;;;;;9.19;95.14;102448.63;5040364;28;20129;-57
2023/04/09 01:38:35;;;;;;;34.35;28.55;;;;;;;9.20;95.51;102442.41;5021023;28;20535;-56
2023/04/09 01:41:02;;;;;;;32.63;28.77;;;;;;;9.19;95.26;102440.69;5030671;28;20172;-57
2023/04/09 01:43:27;;;;;;;34.30;28.88;;;;;;;9.17;95.24;102440.75;5032526;28;20057;-56
2023/04/09 01:45:53;;;;;;;33.75;28.80;;;;;;;9.18;95.76;102438.97;5031363;28;20124;-57
2023/04/09 01:48:19;;;;;;;34.92;28.20;;;;;;;9.18;95.54;102437.19;5036835;28;20378;-57
2023/04/09 01:50:45;;;;;;;35.25;29.50;;;;;;;9.18;95.84;102445.13;5037086;28;20037;-57
2023/04/09 01:53:10;;;;;;;33.95;29.48;;;;;;;9.18;95.73;102439.84;5018858;28;20030;-57
2023/04/09 01:55:35;;;;;;;35.15;29.45;;;;;;;9.16;96.04;102440.81;5021491;28;20032;-54
2023/04/09 01:58:01;;;;;;;37.97;29.92;;;;;;;9.15;96.26;102436.47;5026457;28;20393;-56
2023/04/09 02:00:39;;;;;;;34.20;28.33;;;;;;;9.16;96.04;102433.75;5034972;28;20022;-54
2023/04/09 02:03:15;;;;;;;36.58;30.50;;;;;;;9.16;96.59;102440.81;5040076;28;20040;-56
2023/04/09 02:05:45;;;;;;;32.65;28.52;;;;;;;9.13;96.33;102433.03;5029724;28;20044;-56
2023/04/09 02:08:15;;;;;;;37.45;29.90;;;;;;;9.13;96.62;102438.34;5052527;28;20095;-55
2023/04/09 02:10:52;;;;;;;33.88;29.05;;;;;;;9.14;95.92;102429.44;5027137;28;20120;-57
2023/04/09 02:13:18;;;;;;;32.83;29.23;;;;;;;9.13;96.26;102433.03;5048753;28;20044;-56
2023/04/09 02:15:45;;;;;;;35.83;30.73;;;;;;;9.12;96.54;102431.28;5021119;28;20398;-57
2023/04/09 02:18:22;;;;;;;36.08;29.92;;;;;;;9.13;96.39;102425.94;5019108;28;20022;-56
2023/04/09 02:20:47;;;;;;;35.47;30.08;;;;;;;9.12;96.76;102431.28;5028461;28;20034;-56
2023/04/09 02:23:14;;;;;;;35.88;30.25;;;;;;;9.11;96.84;102430.44;5032771;28;20557;-58
2023/04/09 02:25:40;;;;;;;36.33;30.35;;;;;;;9.10;96.80;102427.88;5027937;28;20063;-57
2023/04/09 02:28:05;;;;;;;35.95;31.30;;;;;;;9.11;96.84;102432.22;5034334;28;20101;-56
2023/04/09 02:30:30;;;;;;;39.42;32.63;;;;;;;9.09;97.13;102426.97;5027857;28;20387;-55
2023/04/09 02:32:55;;;;;;;39.63;33.60;;;;;;;9.08;97.17;102428.78;5018307;28;20024;-56
2023/04/09 02:35:21;;;;;;;37.78;32.20;;;;;;;9.08;97.17;102423.47;5025292;28;20032;-56
2023/04/09 02:37:46;;;;;;;38.45;32.20;;;;;;;9.09;97.18;102424.34;5036240;28;20425;-57
2023/04/09 02:40:11;;;;;;;39.35;33.15;;;;;;;9.10;97.14;102425.22;5035309;28;20110;-57
2023/04/09 02:42:37;;;;;;;40.63;33.33;;;;;;;9.07;97.15;102419.09;5034436;28;20582;-57
2023/04/09 02:45:02;;;;;;;38.80;32.03;;;;;;;9.06;96.92;102420.03;5034723;28;20040;-57
2023/04/09 02:47:29;;;;;;;39.60;33.35;;;;;;;9.07;97.21;102431.50;5029300;28;20152;-57
2023/04/09 02:49:54;;;;;;;40.72;34.00;;;;;;;9.06;97.27;102420.03;5025358;28;20083;-57
2023/04/09 02:52:23;;;;;;;40.58;34.28;;;;;;;9.08;97.41;102422.63;5034287;28;20021;-56
2023/04/09 02:54:48;;;;;;;41.03;33.72;;;;;;;9.08;97.59;102417.31;5034064;28;20032;-57
2023/04/09 02:57:13;;;;;;;39.88;33.63;;;;;;;9.08;97.80;102418.19;5031325;28;20383;-57
2023/04/09 02:59:39;;;;;;;41.38;34.67;;;;;;;9.05;97.67;102409.50;5033394;28;21079;-54
2023/04/09 03:02:04;;;;;;;46.05;35.90;;;;;;;9.03;97.83;102420.19;5029829;28;20406;-56
2023/04/09 03:04:30;;;;;;;44.53;36.13;;;;;;;9.02;97.99;102410.50;5029778;28;20441;-57
2023/04/09 03:06:55;;;;;;;44.90;35.90;;;;;;;9.00;98.03;102404.41;5033543;28;20036;-56
2023/04/09 03:09:20;;;;;;;44.13;36.47;;;;;;;9.01;97.95;102405.25;5027422;28;20038;-57
2023/04/09 03:11:46;;;;;;;46.53;37.00;;;;;;;8.99;98.00;102402.72;5033667;28;20025;-57
2023/04/09 03:14:11;;;;;;;45.05;35.60;;;;;;;8.98;97.88;102406.28;5020028;28;20544;-57
2023/04/09 03:16:36;;;;;;;48.63;37.67;;;;;;;8.98;97.72;102406.28;5033837;28;20029;-57
2023/04/09 03:19:01;;;;;;;47.30;36.33;;;;;;;8.96;97.92;102402.84;5033160;28;20036;-57
2023/04/09 03:21:27;;;;;;;46.70;37.20;;;;;;;8.96;97.86;102400.19;5031758;28;20051;-56
2023/04/09 03:23:52;;;;;;;45.90;36.72;;;;;;;8.96;97.97;102399.31;5015431;28;20038;-54
2023/04/09 03:26:17;;;;;;;49.97;37.75;;;;;;;8.95;97.78;102397.59;5036924;28;20067;-57
2023/04/09 03:28:42;;;;;;;46.33;36.38;;;;;;;8.94;97.90;102395.88;5027118;28;20025;-56
2023/04/09 03:31:08;;;;;;;46.92;36.47;;;;;;;8.94;98.13;102399.38;5032994;28;20030;-57
2023/04/09 03:33:33;;;;;;;47.35;36.92;;;;;;;8.93;98.26;102394.19;5025754;28;20025;-57
2023/04/09 03:35:58;;;;;;;50.45;38.10;;;;;;;8.91;97.96;102394.25;5033307;28;20367;-58
2023/04/09 03:38:23;;;;;;;49.55;38.35;;;;;;;8.92;98.01;102393.28;5039725;28;20490;-57
2023/04/09 03:40:49;;;;;;;47.40;36.92;;;;;;;8.91;98.13;102386.28;5022351;28;20033;-57
2023/04/09 03:43:14;;;;;;;46.50;36.78;;;;;;;8.93;98.50;102394.19;5027621;28;20030;-57
2023/04/09 03:45:39;;;;;;;50.00;38.65;;;;;;;8.90;98.51;102381.91;5033191;28;20017;-56
2023/04/09 03:48:05;;;;;;;51.35;40.00;;;;;;;8.90;98.31;102395.16;5028376;28;20034;-57
2023/04/09 03:50:30;;;;;;;51.38;39.70;;;;;;;8.88;98.28;102389.91;5042671;28;20124;-56
2023/04/09 03:52:55;;;;;;;49.97;38.53;;;;;;;8.85;98.46;102384.75;5038105;28;20029;-57
2023/04/09 03:55:21;;;;;;;51.55;38.78;;;;;;;8.86;98.54;102385.63;5037945;28;20474;-57
2023/04/09 03:57:46;;;;;;;49.53;39.25;;;;;;;8.85;98.14;102386.56;5030750;28;20049;-56
2023/04/09 04:00:11;;;;;;;52.08;40.28;;;;;;;8.83;98.31;102391.06;5045132;28;20100;-54
2023/04/09 04:02:37;;;;;;;51.00;39.42;;;;;;;8.83;98.68;102389.28;5032875;28;20041;-57
2023/04/09 04:05:02;;;;;;;50.25;38.67;;;;;;;8.81;98.79;102387.59;5037216;28;20424;-56
2023/04/09 04:07:27;;;;;;;49.13;37.75;;;;;;;8.79;98.19;102386.81;5037300;28;20108;-56
2023/04/09 04:09:53;;;;;;;49.42;38.92;;;;;;;8.76;98.33;102386.94;5048587;28;20048;-56
2023/04/09 04:12:18;;;;;;;46.30;37.05;;;;;;;8.73;97.19;102389.72;5049128;28;20056;-56
2023/04/09 04:14:43;;;;;;;44.05;35.30;;;;;;;8.69;97.04;102389.00;5036850;28;20544;-57
2023/04/09 04:17:09;;;;;;;45.55;35.83;;;;;;;8.67;96.67;102393.53;5040551;28;20037;-54
2023/04/09 04:19:35;;;;;;;45.47;35.90;;;;;;;8.64;96.85;102391.88;5039441;28;20060;-55
2023/04/09 04:22:00;;;;;;;47.97;36.20;;;;;;;8.66;97.08;102394.44;5043813;28;20445;-57
2023/04/09 04:24:25;;;;;;;45.85;35.90;;;;;;;8.64;96.93;102393.66;5024222;28;20024;-54
2023/04/09 04:26:50;;;;;;;47.67;37.17;;;;;;;8.64;97.43;102385.69;5039821;28;20068;-57
2023/04/09 04:29:16;;;;;;;47.15;36.22;;;;;;;8.63;97.39;102384.00;5044313;28;20060;-54
2023/04/09 04:31:41;;;;;;;48.15;37.05;;;;;;;8.62;97.71;102382.25;5032184;28;20567;-55
2023/04/09 04:34:06;;;;;;;46.17;35.97;;;;;;;8.60;97.48;102381.47;5031399;28;20177;-56
2023/04/09 04:36:32;;;;;;;48.05;36.78;;;;;;;8.58;97.00;102386.00;5028542;28;20029;-55
2023/04/09 04:38:57;;;;;;;46.03;35.75;;;;;;;8.56;96.61;102378.13;5031272;28;20064;-56
2023/04/09 04:41:22;;;;;;;48.40;36.40;;;;;;;8.51;96.52;102380.09;5032216;28;21029;-55
2023/04/09 04:43:47;;;;;;;44.70;34.70;;;;;;;8.49;96.42;102381.94;5032656;28;20527;-56
2023/04/09 04:46:13;;;;;;;48.22;36.95;;;;;;;8.46;96.66;102387.34;5028720;28;20485;-56
2023/04/09 04:48:38;;;;;;;47.25;36.72;;;;;;;8.42;96.87;102386.59;5031940;28;20040;-57
2023/04/09 04:51:03;;;;;;;46.40;36.30;;;;;;;8.41;96.73;102389.31;5031875;28;20593;-55
2023/04/09 04:53:29;;;;;;;43.92;35.58;;;;;;;8.40;96.57;102385.81;5031133;28;20021;-57
2023/04/09 04:55:54;;;;;;;47.72;36.72;;;;;;;8.39;97.07;102388.53;5025542;28;20096;-57
2023/04/09 04:58:19;;;;;;;44.60;35.90;;;;;;;8.33;97.16;102392.31;5031834;28;20092;-56
2023/04/09 05:00:45;;;;;;;46.88;35.78;;;;;;;8.29;97.18;102396.88;5031712;28;20104;-57
2023/04/09 05:03:11;;;;;;;45.00;34.75;;;;;;;8.25;97.33;102395.25;5019453;28;20044;-56
2023/04/09 05:05:36;;;;;;;50.42;36.80;;;;;;;8.22;97.44;102390.09;5031829;28;20429;-57
2023/04/09 05:08:01;;;;;;;44.28;34.50;;;;;;;8.19;96.81;102389.38;5027222;28;20026;-56
2023/04/09 05:10:27;;;;;;;45.75;34.22;;;;;;;8.11;96.69;102385.25;5023883;28;20064;-54
2023/04/09 05:12:52;;;;;;;43.28;33.63;;;;;;;8.05;96.62;102384.66;5032236;28;20025;-57
2023/04/09 05:15:17;;;;;;;43.35;32.92;;;;;;;8.01;96.92;102383.91;5027785;28;20118;-57
2023/04/09 05:17:43;;;;;;;42.80;33.25;;;;;;;7.97;96.80;102384.94;5035359;28;20471;-56
2023/04/09 05:20:09;;;;;;;43.33;33.28;;;;;;;7.94;96.62;102393.00;5037943;28;20505;-55
2023/04/09 05:22:35;;;;;;;45.85;34.42;;;;;;;7.88;97.03;102394.13;5027363;28;20468;-55
2023/04/09 05:25:01;;;;;;;43.00;32.45;;;;;;;7.85;96.73;102391.59;5021644;28;20034;-55
2023/04/09 05:27:27;;;;;;;41.83;32.30;;;;;;;7.82;96.89;102391.72;5029660;28;20057;-57
2023/04/09 05:29:52;;;;;;;45.28;33.80;;;;;;;7.80;96.95;102390.94;5022376;28;20083;-57
2023/04/09 05:32:17;;;;;;;45.17;33.85;;;;;;;7.76;97.03;102392.84;5025606;28;20079;-56
2023/04/09 05:34:43;;;;;;;44.67;33.58;;;;;;;7.72;96.72;102396.50;5039979;28;20446;-56
2023/04/09 05:37:08;;;;;;;46.10;33.53;;;;;;;7.67;96.94;102395.84;5043481;28;20044;-55
2023/04/09 05:39:33;;;;;;;42.70;33.17;;;;;;;7.65;97.28;102394.19;5050998;28;20025;-57
2023/04/09 05:41:59;;;;;;;42.70;33.85;;;;;;;7.62;97.76;102395.16;5048335;28;20505;-55
2023/04/09 05:44:25;;;;;;;44.60;33.03;;;;;;;7.60;97.28;102389.94;5050287;28;20033;-56
2023/04/09 05:46:50;;;;;;;43.05;32.58;;;;;;;7.57;97.11;102392.69;5024639;28;20549;-56
2023/04/09 05:49:16;;;;;;;45.63;32.83;;;;;;;7.56;97.44;102395.41;5038492;28;20087;-57
2023/04/09 05:51:42;;;;;;;45.08;34.08;;;;;;;7.54;97.66;102400.78;5034595;28;20030;-57
2023/04/09 05:54:07;;;;;;;44.15;33.65;;;;;;;7.52;97.61;102396.44;5033340;28;20032;-56
2023/04/09 05:56:32;;;;;;;44.70;32.30;;;;;;;7.49;97.57;102400.06;5031830;28;20498;-55
2023/04/09 05:58:58;;;;;;;43.80;33.33;;;;;;;7.49;97.41;102405.34;5026650;28;20452;-56
2023/04/09 06:01:23;;;;;;;45.65;33.70;;;;;;;7.49;98.00;102399.22;5015010;28;20319;-53
2023/04/09 06:03:48;;;;;;;45.85;32.85;;;;;;;7.50;97.71;102412.38;5017537;28;20064;-54
2023/04/09 06:06:14;;;;;;;42.72;32.03;;;;;;;7.49;97.73;102415.91;5022281;28;20033;-53
2023/04/09 06:08:39;;;;;;;46.15;33.40;;;;;;;7.48;97.64;102424.78;5026555;28;20080;-56
2023/04/09 06:11:09;;;;;;;44.55;33.13;;;;;;;7.47;98.15;102414.28;5018761;28;20098;-55
2023/04/09 06:13:34;;;;;;;45.60;33.70;;;;;;;7.50;98.06;102412.38;5029410;28;20553;-54
2023/04/09 06:16:00;;;;;;;40.53;32.17;;;;;;;7.52;97.97;102417.59;5029497;28;20076;-56
2023/04/09 06:18:26;;;;;;;45.47;32.95;;;;;;;7.51;97.87;102411.47;5024591;28;20387;-55
2023/04/09 06:21:01;;;;;;;45.90;33.90;;;;;;;7.53;97.89;102420.19;5022686;28;20129;-55
2023/04/09 06:23:26;;;;;;;45.97;33.80;;;;;;;7.52;97.86;102415.81;5022708;28;20075;-54
2023/04/09 06:25:51;;;;;;;42.95;31.95;;;;;;;7.54;97.46;102413.09;5029437;28;20033;-55
2023/04/09 06:28:17;;;;;;;41.13;32.33;;;;;;;7.55;97.95;102420.97;5031978;28;20466;-53
2023/04/09 06:30:42;;;;;;;43.90;32.88;;;;;;;7.57;97.60;102416.50;5030137;28;20041;-53
2023/04/09 06:33:07;;;;;;;45.78;33.67;;;;;;;7.59;97.90;102419.97;5030489;28;20038;-54
2023/04/09 06:35:32;;;;;;;44.45;32.55;;;;;;;7.62;97.98;102418.09;5037807;28;20041;-57
2023/04/09 06:37:58;;;;;;;43.97;32.40;;;;;;;7.65;98.23;102418.00;5038834;28;20880;-56
2023/04/09 06:40:23;;;;;;;46.28;33.15;;;;;;;7.68;97.71;102420.53;5035346;28;20045;-55
2023/04/09 06:42:48;;;;;;;44.55;33.17;;;;;;;7.69;98.02;102422.22;5029561;28;20383;-54
2023/04/09 06:45:14;;;;;;;47.05;33.47;;;;;;;7.73;97.79;102421.22;5035213;28;20037;-54
2023/04/09 06:47:39;;;;;;;47.42;33.90;;;;;;;7.73;97.27;102421.22;5033812;28;20112;-56
2023/04/09 06:50:05;;;;;;;44.72;34.15;;;;;;;7.78;97.94;102428.03;5028842;28;20046;-55
2023/04/09 06:52:31;;;;;;;45.45;34.45;;;;;;;7.84;97.72;102426.06;5030476;28;20037;-53
2023/04/09 06:54:56;;;;;;;44.97;34.95;;;;;;;7.84;97.37;102426.91;5029024;28;20025;-53
2023/04/09 06:57:21;;;;;;;46.17;35.05;;;;;;;7.86;97.54;102440.06;5029295;28;20478;-52
2023/04/09 06:59:46;;;;;;;48.38;35.13;;;;;;;7.91;97.26;102430.16;5026274;28;20029;-51
2023/04/09 07:02:12;;;;;;;45.30;34.60;;;;;;;7.97;97.06;102432.56;5033662;28;20087;-54
2023/04/09 07:04:37;;;;;;;44.50;34.05;;;;;;;8.01;96.60;102434.19;5030820;28;20025;-52
2023/04/09 07:07:02;;;;;;;43.85;34.70;;;;;;;8.10;97.16;102435.59;5035322;28;20049;-54
2023/04/09 07:09:28;;;;;;;45.88;34.83;;;;;;;8.19;96.76;102435.22;5023614;28;20040;-54
2023/04/09 07:11:54;;;;;;;52.05;40.97;;;;;;;8.26;96.14;102428.75;5026630;28;20049;-53
2023/04/09 07:14:19;;;;;;;44.65;34.47;;;;;;;8.38;96.18;102431.81;5030615;28;20359;-54
2023/04/09 07:16:45;;;;;;;43.50;33.25;;;;;;;8.47;95.06;102427.00;5026952;28;20410;-53
2023/04/09 07:19:11;;;;;;;67.63;52.22;;;;;;;8.60;94.93;102431.81;5036042;28;20064;-52
2023/04/09 07:21:36;;;;;;;73.72;54.47;;;;;;;8.76;94.70;102431.97;5031510;28;20041;-52
2023/04/09 07:24:01;;;;;;;50.67;40.80;;;;;;;8.89;94.36;102433.16;5026092;28;20455;-52
2023/04/09 07:26:28;;;;;;;46.08;34.90;;;;;;;9.00;93.20;102438.00;5035716;28;20495;-52
2023/04/09 07:28:53;;;;;;;39.80;33.53;;;;;;;9.13;92.49;102433.03;5028477;28;20053;-52
2023/04/09 07:31:18;;;;;;;44.20;33.20;;;;;;;9.33;91.77;102435.63;5031824;28;20579;-51
2023/04/09 07:33:43;;;;;;;42.90;33.00;;;;;;;9.51;91.53;102436.56;5030921;28;20038;-53
2023/04/09 07:36:09;;;;;;;41.58;33.63;;;;;;;9.78;91.11;102436.19;5026893;28;20056;-53
2023/04/09 07:38:34;;;;;;;41.97;33.00;;;;;;;9.95;90.78;102432.72;5031834;28;20036;-52
2023/04/09 07:41:00;;;;;;;41.13;33.38;;;;;;;10.09;90.46;102440.91;5031842;28;20049;-52
2023/04/09 07:43:25;;;;;;;43.10;33.78;;;;;;;10.25;88.60;102432.16;5030724;28;20025;-54
2023/04/09 07:45:51;;;;;;;40.28;32.45;;;;;;;10.42;88.24;102434.00;5022485;28;20049;-53
2023/04/09 07:48:16;;;;;;;38.10;31.73;;;;;;;10.55;86.47;102430.63;5028935;28;20032;-55
2023/04/09 07:50:43;;;;;;;39.10;31.70;;;;;;;10.66;84.69;102439.88;5036974;28;20067;-52
2023/04/09 07:53:09;;;;;;;41.33;33.47;;;;;;;10.89;85.83;102434.22;5025602;28;20095;-52
2023/04/09 07:55:34;;;;;;;41.40;32.90;;;;;;;11.10;84.11;102428.69;5033622;28;20037;-55
2023/04/09 07:58:00;;;;;;;41.72;32.72;;;;;;;11.20;81.88;102432.56;5029889;28;20394;-54
2023/04/09 08:00:25;;;;;;;38.58;31.08;;;;;;;11.40;82.09;102431.50;5032526;28;20032;-53
2023/04/09 08:02:51;;;;;;;40.25;32.30;;;;;;;11.55;80.33;102436.94;5035687;28;20047;-55
2023/04/09 08:05:16;;;;;;;40.72;32.75;;;;;;;11.71;80.26;102434.25;5028414;28;20466;-53
2023/04/09 08:07:42;;;;;;;38.97;31.65;;;;;;;11.95;80.93;102424.91;5029897;28;20041;-56
2023/04/09 08:10:12;;;;;;;39.15;30.27;;;;;;;12.15;79.16;102431.75;5028217;28;20490;-53
2023/04/09 08:12:38;;;;;;;39.30;32.67;;;;;;;12.34;78.22;102425.34;5026195;28;20120;-56
2023/04/09 08:15:03;;;;;;;38.92;31.83;;;;;;;12.55;78.21;102421.41;5027233;28;20109;-56
2023/04/09 08:17:29;;;;;;;39.97;32.13;;;;;;;12.73;75.83;102426.59;5020834;28;20034;-55
2023/04/09 08:19:54;;;;;;;37.35;31.50;;;;;;;12.93;75.95;102425.38;5023045;28;20113;-56
2023/04/09 08:22:20;;;;;;;37.20;32.17;;;;;;;12.96;73.11;102428.72;5015611;28;20479;-56
2023/04/09 08:24:50;;;;;;;38.80;32.50;;;;;;;12.95;74.33;102429.66;5031163;28;20033;-54
2023/04/09 08:27:16;;;;;;;35.83;31.77;;;;;;;13.02;75.43;102430.16;5030430;28;20037;-54
2023/04/09 08:29:42;;;;;;;37.15;31.50;;;;;;;13.06;73.39;102429.03;5031843;28;20036;-55
2023/04/09 08:32:07;;;;;;;38.65;32.63;;;;;;;13.03;72.79;102423.03;5028135;28;20030;-55
2023/04/09 08:34:32;;;;;;;37.80;32.30;;;;;;;12.99;72.77;102425.03;5022416;28;20037;-55
2023/04/09 08:36:58;;;;;;;38.08;32.60;;;;;;;12.93;73.08;102426.25;5041754;28;20072;-55
2023/04/09 08:39:24;;;;;;;38.65;32.63;;;;;;;12.93;73.06;102420.06;5042171;28;20021;-55
2023/04/09 08:41:50;;;;;;;35.35;31.20;;;;;;;13.04;74.78;102412.25;5026005;28;20037;-56
2023/04/09 08:44:17;;;;;;;38.38;32.05;;;;;;;13.23;73.17;102413.78;5026625;28;20104;-52
2023/04/09 08:46:43;;;;;;;35.50;30.60;;;;;;;13.56;72.30;102415.28;5024997;28;20033;-53
2023/04/09 08:49:09;;;;;;;39.00;32.28;;;;;;;13.68;71.62;102415.34;5019654;28;20044;-52
2023/04/09 08:51:35;;;;;;;37.95;33.15;;;;;;;13.72;71.25;102413.31;5028282;28;20532;-56
2023/04/09 08:54:01;;;;;;;36.92;32.67;;;;;;;13.85;70.94;102413.38;5029481;28;20030;-55
2023/04/09 08:56:27;;;;;;;34.85;31.02;;;;;;;14.04;70.44;102413.91;5031025;28;20117;-57
2023/04/09 08:58:55;;;;;;;40.72;31.80;;;;;;;14.20;69.31;102411.03;5028481;28;20120;-56
2023/04/09 09:01:28;;;;;;;37.78;31.73;;;;;;;14.25;69.31;102414.28;5030494;28;20064;-57
2023/04/09 09:04:02;;;;;;;34.92;30.63;;;;;;;14.46;69.54;102412.94;5027471;28;20122;-58
2023/04/09 09:06:31;;;;;;;36.50;30.92;;;;;;;14.66;67.35;102416.97;5030207;28;20037;-57
2023/04/09 09:09:01;;;;;;;34.35;30.45;;;;;;;14.88;67.30;102419.84;5026276;28;20033;-57
2023/04/09 09:11:26;;;;;;;35.85;31.20;;;;;;;14.85;65.48;102411.16;5019773;28;20602;-55
2023/04/09 09:14:01;;;;;;;39.53;32.38;;;;;;;14.79;66.01;102405.28;4992462;28;20050;-57
2023/04/09 09:16:26;;;;;;;36.15;30.95;;;;;;;14.66;65.16;102414.28;5011020;28;20067;-57
2023/04/09 09:18:52;;;;;;;34.88;30.20;;;;;;;14.74;65.56;102406.59;5029754;28;20559;-57
2023/04/09 09:21:18;;;;;;;33.28;29.13;;;;;;;14.85;65.44;102416.53;5037170;28;20500;-55
2023/04/09 09:23:44;;;;;;;33.00;29.33;;;;;;;14.74;64.75;102406.59;5014177;28;20391;-57
2023/04/09 09:26:15;;;;;;;31.67;28.27;;;;;;;14.81;64.95;102407.88;5037343;28;20384;-57
2023/04/09 09:28:40;;;;;;;34.42;29.63;;;;;;;14.88;66.11;102411.81;5024496;28;20029;-57
2023/04/09 09:31:10;;;;;;;34.78;30.08;;;;;;;14.95;65.51;102401.53;5026690;28;20518;-56
2023/04/09 09:33:35;;;;;;;32.80;28.48;;;;;;;14.96;63.87;102405.94;5028090;28;20061;-55
2023/04/09 09:36:02;;;;;;;32.67;29.15;;;;;;;15.22;65.45;102406.78;5033167;28;20132;-57
2023/04/09 09:38:29;;;;;;;32.50;29.00;;;;;;;15.39;62.83;102396.63;5022798;28;20034;-57
2023/04/09 09:40:54;;;;;;;32.35;28.80;;;;;;;15.71;63.64;102397.81;5025483;28;20041;-54
2023/04/09 09:43:20;;;;;;;31.80;27.65;;;;;;;15.90;62.42;102396.50;5020613;28;20406;-56
2023/04/09 09:45:46;;;;;;;31.50;26.67;;;;;;;15.82;59.54;102391.72;5021684;28;20041;-53
2023/04/09 09:48:12;;;;;;;27.88;24.58;;;;;;;15.66;60.12;102394.63;5019344;28;20030;-57
2023/04/09 09:50:40;;;;;;;32.35;27.40;;;;;;;15.73;62.01;102387.84;5026469;28;20534;-56
2023/04/09 09:53:07;;;;;;;32.55;27.67;;;;;;;16.03;62.31;102386.56;5030747;28;20057;-57
2023/04/09 09:55:37;;;;;;;33.65;30.05;;;;;;;16.13;60.05;102380.53;5037948;28;20544;-57
2023/04/09 09:58:10;;;;;;;32.42;28.25;;;;;;;16.63;60.42;102368.56;5016955;28;20421;-53
2023/04/09 10:00:39;;;;;;;31.23;27.88;;;;;;;16.79;57.30;102375.44;5028214;28;20106;-54
2023/04/09 10:03:19;;;;;;;26.58;23.73;;;;;;;16.96;56.95;102368.75;5033075;28;20483;-56
2023/04/09 10:05:47;;;;;;;28.23;23.65;;;;;;;17.14;57.88;102366.44;5037158;28;20021;-54
2023/04/09 10:08:12;;;;;;;26.23;23.10;;;;;;;17.22;55.82;102361.31;5031972;28;20029;-56
2023/04/09 10:10:41;;;;;;;20.35;15.95;;;;;;;17.29;52.16;102362.50;5024277;28;20087;-57
2023/04/09 10:13:11;;;;;;;21.55;18.77;;;;;;;17.26;53.30;102364.59;5033451;28;20035;-57
2023/04/09 10:15:37;;;;;;;17.52;15.30;;;;;;;17.39;52.00;102363.47;5024865;28;20029;-57
2023/04/09 10:18:02;;;;;;;21.20;16.77;;;;;;;17.55;50.20;102355.00;5025557;28;20099;-57
2023/04/09 10:20:40;;;;;;;18.70;16.63;;;;;;;17.42;53.07;102354.31;5029395;28;20014;-56
2023/04/09 10:23:18;;;;;;;21.65;16.83;;;;;;;17.44;52.90;102352.34;5019159;28;20124;-57
2023/04/09 10:25:43;;;;;;;17.13;14.55;;;;;;;17.09;51.60;102345.31;5021212;28;20118;-57
2023/04/09 10:28:17;;;;;;;19.23;16.50;;;;;;;17.09;53.56;102347.16;5026055;28;20026;-57
2023/04/09 10:30:43;;;;;;;19.10;17.13;;;;;;;17.22;52.28;102345.19;5027804;28;20036;-55
2023/04/09 10:33:14;;;;;;;18.65;15.88;;;;;;;17.27;53.96;102339.41;5026470;28;20044;-57
2023/04/09 10:35:39;;;;;;;18.40;15.38;;;;;;;17.28;52.60;102341.13;5028348;28;20026;-57
2023/04/09 10:38:13;;;;;;;19.73;16.67;;;;;;;17.38;52.77;102331.34;5030597;28;20037;-57
2023/04/09 10:40:46;;;;;;;19.67;16.80;;;;;;;17.65;54.48;102333.59;5029124;28;20047;-53
2023/04/09 10:43:13;;;;;;;17.63;14.32;;;;;;;17.88;48.73;102330.84;5031525;28;20495;-54
2023/04/09 10:45:43;;;;;;;18.83;15.70;;;;;;;18.13;49.94;102332.31;5035178;28;20021;-56
2023/04/09 10:48:12;;;;;;;19.98;16.83;;;;;;;18.19;47.91;102325.56;5031965;28;20132;-57
2023/04/09 10:50:38;;;;;;;18.05;16.05;;;;;;;18.14;48.27;102328.66;5021744;28;20031;-57
2023/04/09 10:53:04;;;;;;;17.95;15.65;;;;;;;18.26;47.90;102327.56;5021420;28;20064;-56
2023/04/09 10:55:39;;;;;;;19.02;16.27;;;;;;;18.48;50.36;102318.53;5020435;28;20022;-56
2023/04/09 10:58:10;;;;;;;16.33;14.00;;;;;;;18.43;46.59;102314.50;5015897;28;20120;-63
2023/04/09 11:00:37;;;;;;;16.48;13.85;;;;;;;18.30;47.44;102318.28;5019327;28;20372;-55
2023/04/09 11:03:29;;;;;;;18.63;15.57;;;;;;;18.34;48.77;102316.16;5022716;28;20029;-59
2023/04/09 11:05:59;;;;;;;17.90;15.85;;;;;;;18.42;47.68;102319.06;5020283;28;20037;-55
2023/04/09 11:08:31;;;;;;;17.40;15.48;;;;;;;18.56;45.99;102315.16;5036302;28;20026;-55
2023/04/09 11:10:58;;;;;;;18.58;16.33;;;;;;;18.50;46.00;102307.59;5036642;28;20080;-56
2023/04/09 11:13:24;;;;;;;17.90;15.98;;;;;;;18.29;45.00;102303.13;5023109;28;20033;-54